Time;durP1;ratioP1;P1;durP2;ratioP2;P2;SDS_P1;SDS_P2;PMS_P1;PMS_P2;Temp;Humidity;BMP_temperature;BMP_pressure;BME280_temperature;BME280_humidity;BME280_pressure;Samples;Min_cycle;Max_cycle;Signal;HPM_P1;HPM_P2
2021/12/07 00:01:14;;;;;;;23.07;17.73;;;0.30;99.90;;;;;;5008774;28;20463;-50
2021/12/07 00:03:42;;;;;;;18.00;15.10;;;0.20;99.90;;;;;;5006088;28;20488;-49
2021/12/07 00:06:09;;;;;;;22.27;17.43;;;0.20;99.90;;;;;;5011967;28;20495;-51
2021/12/07 00:08:36;;;;;;;20.10;17.03;;;0.20;99.90;;;;;;5011057;28;20534;-50
2021/12/07 00:11:03;;;;;;;20.10;17.03;;;0.10;99.90;;;;;;5012422;28;20543;-50
2021/12/07 00:13:33;;;;;;;21.77;17.10;;;0.20;99.90;;;;;;5013206;28;20463;-51
2021/12/07 00:16:00;;;;;;;23.17;17.70;;;0.10;99.90;;;;;;5008213;28;20469;-51
2021/12/07 00:18:26;;;;;;;21.20;17.57;;;0.10;99.90;;;;;;5012327;28;20526;-50
2021/12/07 00:20:54;;;;;;;21.13;16.60;;;0.10;99.90;;;;;;5011867;28;20515;-51
2021/12/07 00:23:21;;;;;;;20.80;17.67;;;0.10;99.90;;;;;;5008603;28;20502;-50
2021/12/07 00:25:48;;;;;;;21.10;16.43;;;0.10;99.90;;;;;;5012942;28;20985;-50
2021/12/07 00:28:15;;;;;;;20.77;17.20;;;0.10;99.90;;;;;;5005469;28;20468;-49
2021/12/07 00:30:41;;;;;;;19.93;16.33;;;0.00;99.90;;;;;;5010182;28;20914;-49
2021/12/07 00:33:14;;;;;;;18.40;16.30;;;-0.10;99.90;;;;;;5011142;28;20464;-50
2021/12/07 00:35:41;;;;;;;20.93;16.77;;;-0.10;99.90;;;;;;5008476;28;20475;-50
2021/12/07 00:38:11;;;;;;;21.67;17.03;;;-0.20;99.90;;;;;;5007597;28;20578;-50
2021/12/07 00:40:39;;;;;;;27.90;18.57;;;-0.20;99.90;;;;;;5009450;28;20930;-50
2021/12/07 00:43:07;;;;;;;25.70;18.60;;;-0.20;99.90;;;;;;5010424;28;20487;-51
2021/12/07 00:45:35;;;;;;;22.83;17.90;;;-0.30;99.90;;;;;;5004186;28;20506;-50
2021/12/07 00:48:04;;;;;;;24.90;18.20;;;-0.30;99.90;;;;;;5010242;28;20539;-50
2021/12/07 00:50:33;;;;;;;25.03;18.40;;;-0.30;99.90;;;;;;5008323;28;20507;-51
2021/12/07 00:53:02;;;;;;;22.17;17.20;;;-0.30;99.90;;;;;;5002985;28;20560;-50
2021/12/07 00:55:33;;;;;;;19.60;16.67;;;-0.30;99.90;;;;;;5009622;28;20463;-50
2021/12/07 00:58:06;;;;;;;20.03;15.63;;;-0.40;99.90;;;;;;5009060;28;20524;-50
2021/12/07 01:00:33;;;;;;;26.60;16.97;;;-0.30;99.90;;;;;;5005734;28;20518;-50
2021/12/07 01:03:00;;;;;;;23.00;17.63;;;-0.40;99.90;;;;;;5009456;28;20503;-50
2021/12/07 01:05:30;;;;;;;21.90;16.90;;;-0.40;99.90;;;;;;5010515;28;20492;-51
2021/12/07 01:08:15;;;;;;;24.03;19.20;;;-0.40;99.90;;;;;;5010315;28;20459;-50
2021/12/07 01:24:43;;;;;;;19.40;15.90;;;-0.50;99.90;;;;;;5004408;28;20804;-51
2021/12/07 01:27:14;;;;;;;20.47;15.70;;;-0.40;99.90;;;;;;5011415;28;20533;-50
2021/12/07 01:29:43;;;;;;;23.70;16.80;;;-0.50;99.90;;;;;;5007071;28;20996;-50
2021/12/07 01:32:21;;;;;;;20.07;16.10;;;-0.50;99.90;;;;;;5007163;28;20483;-52
2021/12/07 01:35:20;;;;;;;19.40;16.47;;;-0.50;99.90;;;;;;5006586;28;20463;-50
2021/12/07 01:38:01;;;;;;;19.50;15.40;;;-0.60;99.90;;;;;;5010740;28;20487;-51
2021/12/07 01:43:39;;;;;;;20.20;16.63;;;-0.50;99.90;;;;;;4967755;28;20482;-55
2021/12/07 01:51:51;;;;;;;20.73;16.13;;;-0.60;99.90;;;;;;4979787;28;20503;-54
2021/12/07 01:59:51;;;;;;;21.60;16.93;;;-0.60;99.90;;;;;;4987110;28;20486;-55
2021/12/07 02:02:20;;;;;;;18.37;15.30;;;-0.70;99.90;;;;;;4989451;28;20521;-55
2021/12/07 02:04:47;;;;;;;21.07;15.90;;;-0.60;99.90;;;;;;4991568;28;20495;-54
2021/12/07 02:07:14;;;;;;;18.57;15.67;;;-0.60;99.90;;;;;;4985962;28;20540;-54
2021/12/07 02:09:45;;;;;;;19.50;16.30;;;-0.70;99.90;;;;;;4991115;28;20449;-53
2021/12/07 02:12:13;;;;;;;18.00;15.20;;;-0.60;99.90;;;;;;4990783;28;20511;-54
2021/12/07 02:14:40;;;;;;;18.90;15.43;;;-0.70;99.90;;;;;;4988733;28;20489;-55
2021/12/07 02:17:10;;;;;;;21.47;15.07;;;-0.70;99.90;;;;;;4987141;28;20488;-54
2021/12/07 02:19:37;;;;;;;17.23;14.97;;;-0.70;99.90;;;;;;4990181;28;20484;-54
2021/12/07 02:22:05;;;;;;;19.63;15.60;;;-0.70;99.90;;;;;;4987907;28;20476;-54
2021/12/07 02:24:33;;;;;;;17.63;14.43;;;-0.70;99.90;;;;;;4988484;28;20492;-54
2021/12/07 02:27:01;;;;;;;18.10;14.83;;;-0.70;99.90;;;;;;4989274;28;20484;-54
2021/12/07 02:29:28;;;;;;;17.93;14.57;;;-0.70;99.90;;;;;;4990413;28;20508;-54
2021/12/07 02:31:56;;;;;;;18.50;14.80;;;-0.70;99.90;;;;;;4988948;28;20526;-55
2021/12/07 02:34:24;;;;;;;15.67;13.70;;;-0.70;99.90;;;;;;4991868;28;20453;-54
2021/12/07 02:36:51;;;;;;;19.30;15.40;;;-0.70;99.90;;;;;;4987826;28;20825;-54
2021/12/07 02:39:19;;;;;;;18.30;14.20;;;-0.80;99.90;;;;;;4987945;28;20487;-54
2021/12/07 02:41:46;;;;;;;14.70;12.70;;;-0.80;99.90;;;;;;4990438;28;20551;-55
2021/12/07 02:44:13;;;;;;;18.63;14.03;;;-0.80;99.90;;;;;;4988841;28;20967;-54
2021/12/07 02:46:40;;;;;;;17.03;13.70;;;-0.80;99.90;;;;;;4989529;28;20481;-54
2021/12/07 02:49:08;;;;;;;15.33;13.70;;;-0.90;99.90;;;;;;4990570;28;20484;-54
2021/12/07 02:51:35;;;;;;;16.90;13.43;;;-0.90;99.90;;;;;;4987959;28;20526;-54
2021/12/07 02:54:02;;;;;;;14.93;12.67;;;-0.90;99.90;;;;;;4989083;28;20496;-54
2021/12/07 02:56:30;;;;;;;16.37;13.13;;;-0.90;99.90;;;;;;4991230;28;20511;-53
2021/12/07 02:59:01;;;;;;;15.43;13.23;;;-0.80;99.90;;;;;;4989306;28;20524;-55
2021/12/07 03:01:32;;;;;;;16.40;12.97;;;-0.90;99.90;;;;;;4983926;28;20486;-53
2021/12/07 03:04:03;;;;;;;16.53;13.60;;;-0.80;99.90;;;;;;4990840;28;20464;-53
2021/12/07 03:06:47;;;;;;;16.20;13.10;;;-0.80;22.40;;;;;;4987955;28;20476;-54
2021/12/07 03:09:51;;;;;;;15.63;13.20;;;-0.90;29.40;;;;;;4992695;28;20456;-55
2021/12/07 03:26:15;;;;;;;16.37;13.10;;;-0.90;49.30;;;;;;4992523;28;20456;-54
2021/12/07 03:28:46;;;;;;;20.60;13.10;;;-1.00;63.60;;;;;;4993370;28;21016;-54
2021/12/07 03:31:15;;;;;;;16.77;12.53;;;-1.00;57.10;;;;;;4988872;28;20523;-54
2021/12/07 03:33:41;;;;;;;16.43;13.07;;;-1.00;56.70;;;;;;4989912;28;20479;-54
2021/12/07 03:36:10;;;;;;;19.43;13.67;;;-1.00;59.30;;;;;;4996410;28;20610;-54
2021/12/07 03:38:37;;;;;;;14.63;11.70;;;-1.00;56.10;;;;;;4998927;28;20514;-54
2021/12/07 03:41:04;;;;;;;15.40;12.43;;;-1.00;57.80;;;;;;4993684;28;20551;-55
2021/12/07 03:43:31;;;;;;;15.60;12.50;;;-1.00;53.60;;;;;;4994596;28;20903;-56
2021/12/07 03:46:00;;;;;;;17.23;13.37;;;-0.90;47.80;;;;;;4994296;28;20456;-54
2021/12/07 03:48:27;;;;;;;15.80;12.70;;;-1.00;56.80;;;;;;4993002;28;20488;-54
2021/12/07 03:50:54;;;;;;;15.73;13.27;;;-1.00;57.60;;;;;;4992094;28;20926;-54
2021/12/07 03:53:21;;;;;;;17.20;13.40;;;-1.00;56.30;;;;;;4991629;28;20469;-54
2021/12/07 03:55:49;;;;;;;16.37;12.57;;;-1.00;54.40;;;;;;4991145;28;20528;-54
2021/12/07 03:58:15;;;;;;;16.20;12.83;;;-1.00;47.30;;;;;;4993168;28;20527;-54
2021/12/07 04:00:44;;;;;;;14.07;12.50;;;-1.00;42.00;;;;;;4991383;28;21336;-55
2021/12/07 04:03:14;;;;;;;16.30;13.60;;;-1.10;34.70;;;;;;4991431;28;20504;-54
2021/12/07 04:05:47;;;;;;;17.23;13.60;;;-1.10;32.10;;;;;;4992982;28;20466;-54
2021/12/07 04:08:16;;;;;;;17.53;14.30;;;-1.00;22.70;;;;;;4991053;28;20900;-54
2021/12/07 04:10:43;;;;;;;16.47;13.43;;;-1.10;22.10;;;;;;4991350;28;20520;-54
2021/12/07 04:13:10;;;;;;;16.27;13.30;;;-1.10;99.90;;;;;;4992782;28;20942;-55
2021/12/07 04:15:37;;;;;;;16.90;14.07;;;-1.10;99.90;;;;;;4989473;28;21169;-54
2021/12/07 04:18:04;;;;;;;17.70;13.93;;;-1.10;99.90;;;;;;4992557;28;20546;-55
2021/12/07 04:20:33;;;;;;;18.17;14.40;;;-1.10;99.90;;;;;;4992739;28;20516;-54
2021/12/07 04:22:59;;;;;;;19.57;14.23;;;-1.10;99.90;;;;;;4992760;28;20468;-54
2021/12/07 04:25:26;;;;;;;17.03;14.67;;;-1.10;99.90;;;;;;4991588;28;20495;-54
2021/12/07 04:27:55;;;;;;;18.63;15.20;;;-1.10;99.90;;;;;;4985933;28;20994;-55
2021/12/07 04:30:25;;;;;;;20.73;15.53;;;-1.10;99.90;;;;;;4988996;28;20509;-54
2021/12/07 04:32:53;;;;;;;18.07;15.40;;;-1.00;99.90;;;;;;4989026;28;20888;-55
2021/12/07 04:35:21;;;;;;;19.33;15.60;;;-1.00;99.90;;;;;;4991821;28;20488;-54
2021/12/07 04:37:49;;;;;;;19.70;16.93;;;-0.90;99.90;;;;;;4988572;28;20519;-54
2021/12/07 04:40:19;;;;;;;18.40;15.73;;;-0.90;99.90;;;;;;4989603;28;20504;-55
2021/12/07 04:42:47;;;;;;;19.37;16.30;;;-0.80;99.90;;;;;;4983056;28;20493;-54
2021/12/07 04:45:25;;;;;;;20.73;16.03;;;-0.80;99.90;;;;;;4990100;28;20954;-53
2021/12/07 04:48:04;;;;;;;20.37;16.90;;;-0.80;99.90;;;;;;4986066;28;20507;-54
2021/12/07 04:57:35;;;;;;;20.73;16.47;;;-0.80;99.90;;;;;;4990300;28;20502;-54
2021/12/07 04:58:53;;;;;;;21.03;16.80;;;-0.70;99.90;;;;;;4991193;28;20487;-54
2021/12/07 05:01:20;;;;;;;21.70;16.53;;;-0.70;99.90;;;;;;4988721;28;20558;-54
2021/12/07 05:03:48;;;;;;;24.70;18.30;;;-0.70;24.30;;;;;;4992134;28;20890;-54
2021/12/07 05:06:16;;;;;;;18.97;15.83;;;-0.70;22.30;;;;;;4981454;28;20472;-54
2021/12/07 05:08:48;;;;;;;20.87;17.17;;;-0.60;85.40;;;;;;4992710;28;20524;-54
2021/12/07 05:11:47;;;;;;;22.70;18.43;;;-0.60;21.10;;;;;;4989624;28;20583;-53
2021/12/07 05:14:18;;;;;;;21.17;16.83;;;-0.70;29.00;;;;;;4990873;28;20843;-54
2021/12/07 05:16:55;;;;;;;22.77;17.90;;;-0.60;22.10;;;;;;4991061;28;20463;-54
2021/12/07 05:25:18;;;;;;;23.83;18.37;;;-0.40;29.30;;;;;;4991497;28;20582;-52
2021/12/07 05:38:55;;;;;;;27.37;20.03;;;-0.30;90.10;;;;;;4972527;28;20483;-54
2021/12/07 05:41:25;;;;;;;23.80;17.10;;;-0.40;77.20;;;;;;4990744;28;20528;-54
2021/12/07 05:43:51;;;;;;;23.90;19.43;;;-0.40;65.70;;;;;;4988850;28;20460;-54
2021/12/07 05:46:18;;;;;;;24.40;19.83;;;-0.50;55.70;;;;;;4990492;28;21013;-55
2021/12/07 05:48:45;;;;;;;27.13;20.93;;;-0.50;51.00;;;;;;4989929;28;20501;-54
2021/12/07 05:51:11;;;;;;;26.67;20.30;;;-0.50;47.70;;;;;;4987292;28;20496;-54
2021/12/07 05:53:38;;;;;;;22.50;18.43;;;-0.50;50.40;;;;;;4989277;28;20493;-53
2021/12/07 05:56:05;;;;;;;27.73;21.23;;;-0.40;44.50;;;;;;4988050;28;20492;-54
2021/12/07 05:58:33;;;;;;;22.90;18.20;;;-0.40;57.10;;;;;;4990002;28;20918;-55
2021/12/07 06:01:00;;;;;;;31.20;22.07;;;-0.50;51.40;;;;;;4984459;28;20517;-54
2021/12/07 06:03:27;;;;;;;24.80;19.63;;;-0.50;62.50;;;;;;4989420;28;20496;-55
2021/12/07 06:05:54;;;;;;;31.07;20.97;;;-0.40;54.20;;;;;;4990950;28;20518;-55
2021/12/07 06:08:21;;;;;;;28.10;20.67;;;-0.40;54.70;;;;;;4990377;28;20495;-54
2021/12/07 06:10:48;;;;;;;29.40;21.67;;;-0.40;62.50;;;;;;4992428;28;20484;-54
2021/12/07 06:13:15;;;;;;;27.70;20.60;;;-0.50;69.90;;;;;;4985731;28;20497;-55
2021/12/07 06:15:45;;;;;;;25.40;20.13;;;-0.50;70.00;;;;;;4989734;28;20460;-55
2021/12/07 06:18:12;;;;;;;28.90;22.50;;;-0.60;63.60;;;;;;4987772;28;20965;-54
2021/12/07 06:20:41;;;;;;;28.23;21.33;;;-0.60;66.60;;;;;;4983001;28;20496;-54
2021/12/07 06:23:07;;;;;;;24.93;20.77;;;-0.70;60.20;;;;;;4986420;28;20476;-56
2021/12/07 06:25:34;;;;;;;25.87;19.67;;;-0.70;57.00;;;;;;4990595;28;20505;-58
2021/12/07 06:28:00;;;;;;;28.97;22.03;;;-0.70;54.70;;;;;;4987045;28;20492;-56
2021/12/07 06:30:27;;;;;;;28.63;20.90;;;-0.80;48.20;;;;;;4991474;28;20530;-55
2021/12/07 06:32:55;;;;;;;28.70;19.93;;;-0.80;34.40;;;;;;4992141;28;20592;-54
2021/12/07 06:35:22;;;;;;;28.43;22.00;;;-0.80;34.90;;;;;;4991868;28;20456;-54
2021/12/07 06:37:48;;;;;;;32.27;22.17;;;-0.80;31.30;;;;;;4991917;28;20492;-54
2021/12/07 06:40:15;;;;;;;26.83;21.13;;;-0.80;33.50;;;;;;4993316;28;20997;-54
2021/12/07 06:42:41;;;;;;;29.30;22.10;;;-0.90;36.90;;;;;;4987233;28;20911;-54
2021/12/07 06:45:09;;;;;;;26.10;19.50;;;-0.90;41.90;;;;;;4992496;28;20582;-53
2021/12/07 06:47:35;;;;;;;26.70;20.00;;;-0.90;39.80;;;;;;4994386;28;20838;-54
2021/12/07 06:50:05;;;;;;;27.33;21.23;;;-0.90;36.60;;;;;;4985347;28;20465;-54
2021/12/07 06:52:32;;;;;;;27.97;21.80;;;-0.90;33.20;;;;;;5000336;28;20527;-53
2021/12/07 06:54:59;;;;;;;26.47;19.73;;;-0.90;32.20;;;;;;4985783;28;20481;-54
2021/12/07 06:57:25;;;;;;;27.97;22.53;;;-0.90;34.50;;;;;;4990997;28;20823;-54
2021/12/07 06:59:52;;;;;;;27.53;21.80;;;-0.90;34.90;;;;;;4992973;28;21059;-54
2021/12/07 07:02:19;;;;;;;27.20;22.13;;;-0.90;36.50;;;;;;4993222;28;20500;-54
2021/12/07 07:04:46;;;;;;;31.17;23.40;;;-0.90;42.40;;;;;;4984120;28;20518;-54
2021/12/07 07:07:16;;;;;;;31.23;22.80;;;-0.80;45.00;;;;;;4993412;28;20465;-55
2021/12/07 07:09:43;;;;;;;31.47;22.40;;;-0.80;48.20;;;;;;4990489;28;20464;-54
2021/12/07 07:12:10;;;;;;;31.50;23.03;;;-0.70;49.30;;;;;;4985186;28;20543;-54
2021/12/07 07:14:36;;;;;;;36.20;24.27;;;-0.70;52.70;;;;;;4995835;28;20483;-54
2021/12/07 07:17:03;;;;;;;31.67;25.07;;;-0.60;60.20;;;;;;4993577;28;20521;-54
2021/12/07 07:19:30;;;;;;;33.63;23.77;;;-0.70;77.40;;;;;;4992609;28;20518;-54
2021/12/07 07:21:58;;;;;;;30.02;22.80;;;-0.60;58.30;;;;;;4990954;28;20460;-55
2021/12/07 07:24:26;;;;;;;33.03;24.90;;;-0.60;65.00;;;;;;4994255;28;20205;-55
2021/12/07 07:26:53;;;;;;;31.80;24.67;;;-0.70;92.30;;;;;;4982541;28;20559;-55
2021/12/07 07:29:19;;;;;;;28.93;23.67;;;-0.60;83.10;;;;;;4990413;28;20520;-54
2021/12/07 07:31:46;;;;;;;31.37;22.40;;;-0.70;80.10;;;;;;4992468;28;20531;-54
2021/12/07 07:34:12;;;;;;;27.23;21.27;;;-0.60;81.30;;;;;;5005282;28;20502;-55
2021/12/07 07:36:39;;;;;;;30.77;22.27;;;-0.70;95.00;;;;;;4996316;28;20500;-54
2021/12/07 07:39:06;;;;;;;32.40;21.47;;;-0.60;92.90;;;;;;4991722;28;20908;-54
2021/12/07 07:41:34;;;;;;;29.73;23.43;;;-0.60;99.90;;;;;;4998242;22;20929;-51
2021/12/07 07:44:00;;;;;;;27.60;20.97;;;-0.60;99.90;;;;;;4969443;28;20461;-51
2021/12/07 07:46:27;;;;;;;26.60;21.57;;;-0.60;99.90;;;;;;4969727;28;20518;-50
2021/12/07 07:48:54;;;;;;;28.33;21.40;;;-0.60;99.90;;;;;;4961560;28;20453;-50
2021/12/07 07:51:21;;;;;;;26.53;20.63;;;-0.60;99.90;;;;;;4974898;28;20516;-51
2021/12/07 07:53:48;;;;;;;28.83;22.23;;;-0.60;99.90;;;;;;4990379;28;20499;-51
2021/12/07 07:56:15;;;;;;;27.60;20.47;;;-0.60;99.90;;;;;;4992488;28;20977;-52
2021/12/07 07:58:43;;;;;;;27.20;21.50;;;-0.60;99.90;;;;;;4990165;28;20550;-51
2021/12/07 08:01:09;;;;;;;30.23;21.73;;;-0.40;99.90;;;;;;4992303;28;20977;-50
2021/12/07 08:03:36;;;;;;;24.70;19.57;;;-0.50;99.90;;;;;;4991541;28;20495;-49
2021/12/07 08:06:03;;;;;;;25.97;19.77;;;-0.50;99.90;;;;;;4993536;28;20514;-51
2021/12/07 08:08:30;;;;;;;29.47;22.03;;;-0.40;99.90;;;;;;4990999;28;20518;-50
2021/12/07 08:10:57;;;;;;;29.70;21.20;;;-0.40;99.90;;;;;;4990839;28;20460;-51
2021/12/07 08:13:24;;;;;;;24.53;19.97;;;-0.60;99.90;;;;;;4987155;28;20488;-50
2021/12/07 08:15:51;;;;;;;30.40;21.93;;;-0.50;99.90;;;;;;4986833;28;20570;-51
2021/12/07 08:18:18;;;;;;;26.80;21.03;;;-0.40;99.90;;;;;;4984067;28;20500;-50
2021/12/07 08:20:45;;;;;;;26.40;19.97;;;-0.40;99.90;;;;;;4986685;28;20613;-50
2021/12/07 08:23:13;;;;;;;28.13;21.40;;;-0.50;99.90;;;;;;4979923;28;20476;-50
2021/12/07 08:25:42;;;;;;;28.60;21.37;;;-0.40;99.90;;;;;;4988315;28;20511;-49
2021/12/07 08:28:11;;;;;;;25.57;20.43;;;-0.40;99.90;;;;;;4982727;28;20548;-50
2021/12/07 08:30:39;;;;;;;25.33;19.90;;;-0.40;99.90;;;;;;4983330;28;20461;-51
2021/12/07 08:33:07;;;;;;;24.40;18.80;;;-0.30;99.90;;;;;;4988676;28;20520;-51
2021/12/07 08:35:34;;;;;;;26.60;20.97;;;-0.20;99.90;;;;;;4987470;28;20472;-50
2021/12/07 08:38:00;;;;;;;25.17;19.87;;;-0.30;99.90;;;;;;4984370;28;21057;-52
2021/12/07 08:40:29;;;;;;;29.83;20.10;;;-0.30;99.90;;;;;;4984125;28;20520;-51
2021/12/07 08:42:56;;;;;;;26.53;20.17;;;-0.20;99.90;;;;;;4982259;28;20500;-50
2021/12/07 08:45:24;;;;;;;28.47;21.10;;;-0.10;99.90;;;;;;4983267;28;20508;-51
2021/12/07 08:47:51;;;;;;;26.10;19.70;;;-0.20;99.90;;;;;;4983455;28;20492;-50
2021/12/07 08:50:21;;;;;;;31.03;20.13;;;-0.10;99.90;;;;;;4991523;28;20875;-50
2021/12/07 08:52:50;;;;;;;28.50;20.10;;;-0.20;99.90;;;;;;4986651;28;20570;-51
2021/12/07 09:00:46;;;;;;;27.80;21.10;;;0.00;99.90;;;;;;4981467;28;20538;-50
2021/12/07 09:03:13;;;;;;;27.00;21.20;;;-0.10;99.90;;;;;;4983285;28;20484;-51
2021/12/07 09:05:41;;;;;;;28.23;20.80;;;0.00;99.90;;;;;;4985811;28;20503;-50
2021/12/07 09:08:08;;;;;;;30.70;22.47;;;0.00;99.90;;;;;;4982067;28;20469;-49
2021/12/07 09:10:35;;;;;;;31.27;22.93;;;0.00;99.90;;;;;;4981875;28;20560;-51
2021/12/07 09:13:02;;;;;;;26.53;21.63;;;0.00;99.90;;;;;;4986149;28;20539;-50
2021/12/07 09:15:28;;;;;;;39.47;32.17;;;0.10;99.90;;;;;;4984785;28;20460;-50
2021/12/07 09:17:55;;;;;;;31.67;22.77;;;0.00;99.90;;;;;;4983130;28;20552;-49
2021/12/07 09:20:22;;;;;;;32.20;23.10;;;0.10;99.90;;;;;;4984535;28;20578;-50
2021/12/07 09:22:50;;;;;;;30.93;23.87;;;0.00;99.90;;;;;;4983256;28;21104;-50
2021/12/07 09:25:18;;;;;;;30.50;22.33;;;-0.10;99.90;;;;;;4987466;28;20468;-50
2021/12/07 09:27:45;;;;;;;33.20;23.83;;;0.00;99.90;;;;;;4982108;28;20464;-49
2021/12/07 09:30:15;;;;;;;31.53;23.30;;;0.00;99.90;;;;;;4984699;28;20460;-50
2021/12/07 09:32:43;;;;;;;31.47;21.80;;;0.10;99.90;;;;;;4983520;28;21001;-50
2021/12/07 09:35:11;;;;;;;30.23;23.53;;;0.10;99.90;;;;;;4982824;28;20567;-50
2021/12/07 09:37:38;;;;;;;36.83;25.17;;;0.00;99.90;;;;;;4982727;28;20914;-50
2021/12/07 09:40:10;;;;;;;32.30;24.40;;;0.10;99.90;;;;;;4980608;28;20512;-49
2021/12/07 09:42:37;;;;;;;31.40;22.50;;;0.10;99.90;;;;;;4983823;28;20524;-51
2021/12/07 09:45:05;;;;;;;32.47;23.90;;;0.10;99.90;;;;;;4985655;28;20520;-50
2021/12/07 09:47:31;;;;;;;30.47;23.47;;;0.10;99.90;;;;;;4983485;28;21308;-50
2021/12/07 09:49:58;;;;;;;32.80;23.60;;;0.10;99.90;;;;;;4983260;28;20488;-50
2021/12/07 09:52:25;;;;;;;40.33;27.07;;;0.00;99.90;;;;;;4983871;28;20516;-52
2021/12/07 09:54:53;;;;;;;34.10;24.33;;;0.10;99.90;;;;;;4982285;28;20492;-50
2021/12/07 09:57:20;;;;;;;29.90;23.77;;;0.10;99.90;;;;;;4981835;28;20456;-50
2021/12/07 09:59:47;;;;;;;31.87;22.30;;;0.20;99.90;;;;;;4981991;28;20619;-50
2021/12/07 10:02:14;;;;;;;34.50;24.23;;;0.10;99.90;;;;;;4982966;28;20653;-51
2021/12/07 10:04:41;;;;;;;33.07;25.33;;;0.00;99.90;;;;;;4988374;28;20460;-51
2021/12/07 10:07:08;;;;;;;32.13;24.87;;;0.10;99.90;;;;;;4982804;28;20498;-50
2021/12/07 10:09:35;;;;;;;29.60;22.77;;;0.00;99.90;;;;;;4982108;28;20511;-52
2021/12/07 10:12:01;;;;;;;34.77;25.43;;;0.20;99.90;;;;;;4982177;28;20559;-50
2021/12/07 10:14:38;;;;;;;32.80;23.97;;;0.20;99.90;;;;;;4982319;28;20552;-50
2021/12/07 10:17:05;;;;;;;39.20;25.87;;;0.20;99.90;;;;;;4983993;28;20560;-50
2021/12/07 10:19:34;;;;;;;33.93;24.60;;;0.20;99.90;;;;;;4981658;28;20503;-51
2021/12/07 10:22:02;;;;;;;47.33;25.83;;;0.20;99.90;;;;;;4981631;28;20639;-54
2021/12/07 10:24:38;;;;;;;33.63;26.30;;;0.30;99.90;;;;;;4977673;28;21007;-54
2021/12/07 10:27:06;;;;;;;30.47;23.90;;;0.30;99.90;;;;;;4979339;28;20466;-53
2021/12/07 10:29:33;;;;;;;33.07;24.70;;;0.30;99.90;;;;;;4979647;28;21165;-53
2021/12/07 10:32:05;;;;;;;33.23;24.63;;;0.40;99.90;;;;;;4984452;28;20516;-52
2021/12/07 10:34:36;;;;;;;39.50;25.00;;;0.30;99.90;;;;;;4982418;28;20461;-53
2021/12/07 10:37:07;;;;;;;38.67;25.87;;;0.30;99.90;;;;;;4982842;28;20843;-53
2021/12/07 10:39:37;;;;;;;32.37;24.60;;;0.20;99.90;;;;;;4988310;28;20492;-52
2021/12/07 10:42:07;;;;;;;31.83;23.33;;;0.30;99.90;;;;;;4981477;28;20519;-53
2021/12/07 10:44:35;;;;;;;36.47;25.57;;;0.30;99.90;;;;;;4988219;28;20979;-53
2021/12/07 10:47:04;;;;;;;33.50;23.87;;;0.30;99.90;;;;;;4984136;28;20526;-54
2021/12/07 10:49:41;;;;;;;32.97;24.80;;;0.30;99.90;;;;;;4986527;28;20464;-53
2021/12/07 10:52:21;;;;;;;35.93;25.80;;;0.40;99.90;;;;;;4996437;28;20562;-53
2021/12/07 10:54:58;;;;;;;31.77;23.97;;;0.30;99.90;;;;;;4985718;28;20465;-53
2021/12/07 10:57:27;;;;;;;34.27;26.00;;;0.30;99.90;;;;;;4980881;28;20488;-54
2021/12/07 11:00:10;;;;;;;35.83;26.13;;;0.40;99.90;;;;;;4976644;28;20578;-53
2021/12/07 11:02:41;;;;;;;37.37;24.60;;;0.30;99.90;;;;;;4983750;28;20491;-53
2021/12/07 11:05:10;;;;;;;35.83;26.87;;;0.30;99.90;;;;;;4984774;28;20488;-53
2021/12/07 11:07:37;;;;;;;35.40;25.77;;;0.40;99.90;;;;;;4989319;28;20464;-52
2021/12/07 11:10:10;;;;;;;37.63;26.20;;;0.40;99.90;;;;;;4982846;28;20489;-53
2021/12/07 11:12:47;;;;;;;37.37;27.00;;;0.40;99.90;;;;;;4979436;28;20512;-53
2021/12/07 11:15:19;;;;;;;38.63;26.40;;;0.40;99.90;;;;;;4984802;28;20468;-54
2021/12/07 11:17:47;;;;;;;37.53;27.50;;;0.40;99.90;;;;;;4983823;28;20468;-54
2021/12/07 11:20:14;;;;;;;34.43;26.07;;;0.40;99.90;;;;;;4975197;28;20512;-53
2021/12/07 11:22:45;;;;;;;42.10;28.40;;;0.40;99.90;;;;;;4984132;28;20512;-53
2021/12/07 11:25:31;;;;;;;39.77;28.93;;;0.30;99.90;;;;;;4989883;28;20544;-53
2021/12/07 11:30:42;;;;;;;38.00;28.43;;;0.30;99.90;;;;;;4987355;28;21467;-54
2021/12/07 11:33:10;;;;;;;37.63;26.90;;;0.40;99.90;;;;;;4991931;28;20480;-53
2021/12/07 11:35:37;;;;;;;40.87;29.90;;;0.40;99.90;;;;;;4985323;28;20550;-53
2021/12/07 11:38:06;;;;;;;43.13;29.80;;;0.40;99.90;;;;;;4989803;28;20495;-52
2021/12/07 11:40:35;;;;;;;39.37;28.07;;;0.40;99.90;;;;;;4981877;28;20516;-54
2021/12/07 11:43:01;;;;;;;43.20;28.50;;;0.40;99.90;;;;;;4984735;28;20492;-53
2021/12/07 11:45:33;;;;;;;37.40;27.10;;;0.30;99.90;;;;;;4987980;28;20496;-53
2021/12/07 11:48:02;;;;;;;42.17;28.70;;;0.40;99.90;;;;;;4985213;28;20966;-53
2021/12/07 11:50:33;;;;;;;41.53;30.03;;;0.40;99.90;;;;;;4987032;28;20870;-53
2021/12/07 11:53:04;;;;;;;40.97;29.53;;;0.40;99.90;;;;;;4986605;28;20578;-53
2021/12/07 11:55:31;;;;;;;37.93;27.40;;;0.50;99.90;;;;;;4984836;28;20489;-53
2021/12/07 11:57:59;;;;;;;41.60;30.20;;;0.50;99.90;;;;;;4985893;28;20558;-53
2021/12/07 12:00:34;;;;;;;38.90;28.17;;;0.40;99.90;;;;;;4984260;28;21779;-52
2021/12/07 12:03:01;;;;;;;45.40;30.10;;;0.50;99.90;;;;;;4985574;28;20480;-54
2021/12/07 12:05:28;;;;;;;44.40;31.13;;;0.40;99.90;;;;;;4985802;28;20519;-54
2021/12/07 12:07:56;;;;;;;43.50;30.77;;;0.40;99.90;;;;;;4985860;28;20500;-52
2021/12/07 12:10:23;;;;;;;39.50;28.30;;;0.40;99.90;;;;;;4992349;28;20543;-52
2021/12/07 12:13:08;;;;;;;42.43;30.60;;;0.40;99.90;;;;;;4989922;28;20535;-53
2021/12/07 12:15:48;;;;;;;41.27;30.13;;;0.40;99.90;;;;;;4983177;28;20460;-53
2021/12/07 12:18:20;;;;;;;62.30;30.50;;;0.40;99.90;;;;;;4989113;28;20496;-53
2021/12/07 12:20:58;;;;;;;49.50;32.30;;;0.40;99.90;;;;;;4991580;28;20516;-53
2021/12/07 12:23:34;;;;;;;44.07;31.30;;;0.40;99.90;;;;;;4990149;28;20583;-53
2021/12/07 12:26:03;;;;;;;49.50;31.73;;;0.30;99.90;;;;;;4992540;28;20843;-54
2021/12/07 12:28:34;;;;;;;43.50;30.87;;;0.30;99.90;;;;;;4991597;28;20468;-53
2021/12/07 12:31:01;;;;;;;42.10;32.20;;;0.40;99.90;;;;;;4990592;28;20495;-52
2021/12/07 12:33:45;;;;;;;50.60;31.20;;;0.40;99.90;;;;;;4991528;28;20982;-53
2021/12/07 12:36:12;;;;;;;45.40;30.67;;;0.40;99.90;;;;;;4989747;28;20464;-52
2021/12/07 12:38:46;;;;;;;41.43;30.30;;;0.50;99.90;;;;;;4990161;28;20531;-53
2021/12/07 12:41:15;;;;;;;46.13;32.37;;;0.50;99.90;;;;;;4988146;28;20488;-53
2021/12/07 12:43:45;;;;;;;46.93;31.90;;;0.50;99.90;;;;;;4987315;28;20465;-53
2021/12/07 12:46:15;;;;;;;44.53;32.43;;;0.60;99.90;;;;;;4990233;28;20468;-53
2021/12/07 12:48:48;;;;;;;47.97;31.17;;;0.60;99.90;;;;;;4989433;28;20911;-53
2021/12/07 12:51:15;;;;;;;45.93;31.87;;;0.60;99.90;;;;;;4988806;28;20492;-54
2021/12/07 12:53:45;;;;;;;44.83;30.07;;;0.50;99.90;;;;;;4974417;28;21052;-53
2021/12/07 12:56:15;;;;;;;44.27;30.00;;;0.50;99.90;;;;;;4989251;28;20551;-52
2021/12/07 12:58:44;;;;;;;45.07;30.77;;;0.30;99.90;;;;;;4992419;28;20461;-52
2021/12/07 13:01:19;;;;;;;43.30;30.90;;;0.40;99.90;;;;;;4987990;28;20516;-52
2021/12/07 13:04:01;;;;;;;43.37;28.70;;;0.50;99.90;;;;;;4988195;28;20460;-52
2021/12/07 13:06:48;;;;;;;43.80;29.60;;;0.40;99.90;;;;;;4978464;28;20465;-52
2021/12/07 13:09:40;;;;;;;44.67;29.03;;;0.40;99.90;;;;;;4982318;28;20486;-54
2021/12/07 13:12:11;;;;;;;46.40;30.87;;;0.50;99.90;;;;;;4979164;28;20509;-53
2021/12/07 13:14:51;;;;;;;46.50;30.83;;;0.40;99.90;;;;;;4990449;28;20516;-53
2021/12/07 13:17:22;;;;;;;50.70;30.67;;;0.40;99.90;;;;;;4985257;28;20522;-52
2021/12/07 13:20:21;;;;;;;47.33;30.40;;;0.50;99.90;;;;;;4990105;28;20519;-54
2021/12/07 13:22:52;;;;;;;45.57;31.33;;;0.50;99.90;;;;;;4986221;28;20970;-52
2021/12/07 13:25:23;;;;;;;49.80;32.63;;;0.50;99.90;;;;;;4983704;28;20955;-53
2021/12/07 13:28:11;;;;;;;44.77;29.33;;;0.40;99.90;;;;;;4985457;28;22793;-53
2021/12/07 13:30:47;;;;;;;45.70;32.00;;;0.40;99.90;;;;;;4980758;28;20827;-53
2021/12/07 13:33:17;;;;;;;47.17;31.17;;;0.50;99.90;;;;;;4982567;28;20483;-53
2021/12/07 13:35:45;;;;;;;45.53;32.23;;;0.60;99.90;;;;;;4987287;28;20500;-54
2021/12/07 13:38:17;;;;;;;46.13;28.50;;;0.50;99.90;;;;;;4987115;28;20504;-53
2021/12/07 13:40:45;;;;;;;44.20;30.47;;;0.40;99.90;;;;;;4983093;28;21096;-53
2021/12/07 13:43:31;;;;;;;46.93;32.07;;;0.40;99.90;;;;;;5011808;23;20677;-48
2021/12/07 13:46:12;;;;;;;45.70;29.67;;;0.50;99.90;;;;;;5022508;28;20454;-47
2021/12/07 13:48:39;;;;;;;52.67;30.73;;;0.40;99.90;;;;;;5026358;28;20541;-48
2021/12/07 13:51:07;;;;;;;45.27;31.03;;;0.50;99.90;;;;;;5025635;28;20964;-47
2021/12/07 13:53:35;;;;;;;44.57;31.70;;;0.40;99.90;;;;;;5021554;28;21002;-47
2021/12/07 13:56:04;;;;;;;48.43;30.80;;;0.50;99.90;;;;;;5030203;28;20490;-47